Elmer M — WYZ8282 — position and weather

sailwx.info

Track history (hours):
 
Tides and Currents Weather Stations Pressure Air Temp Water Temp Dewpoint Dewpoint Depression Visibility Wind Speed Wind Dir Waves Ship Positions

Elmer M

Owner: Manson Construction Co., SEATTLE, WA. More information available from US FCC via Universal Licensing System and Coast Guard Vessel Documentation Center.

Last reported at 2018-Jan-04 20:28 UTC. Time now 2018-Jan-21 18:14 UTC.
Position N 33°46' W 118°15'.
Warning: this ship's position is 16 days out of date.

; draft 6.5 m.

MMSI: 365903144.

Date/timePositionNaut miles runAvg speedWind from/ knotsBaromVisibWave heightAir tempDewpointWater temp
2018-Jan-04 20:28N 33°46' W 118°15'2 3.7
2018-Jan-04 20:00N 33°46' W 118°13'0 0.9
2018-Jan-04 19:27N 33°45' W 118°13'3 0.1
2018-Jan-03 18:29N 33°44' W 118°16'0 0.0
2018-Jan-03 17:54N 33°44' W 118°16'0 0.3
2018-Jan-03 17:30N 33°44' W 118°16'5 7.5
2018-Jan-03 16:51N 33°44' W 118°10'3 0.1
2018-Jan-02 20:19N 33°45' W 118°13'3 5.6
2018-Jan-02 19:50N 33°43' W 118°16'1 0.4
2018-Jan-02 16:55N 33°44' W 118°16'  
2017-Dec-26 23:30N 33°45' W 118°13'0 0.0
2017-Dec-26 19:17N 33°45' W 118°13'0 0.0
2017-Dec-26 19:00N 33°45' W 118°13'1 0.2
2017-Dec-26 13:50N 33°46' W 118°14'  
Track history (hours):
 
Tides and Currents Weather Stations Pressure Air Temp Water Temp Dewpoint Dewpoint Depression Visibility Wind Speed Wind Dir Waves Ship Positions

Elmer M

Owner: Manson Construction Co., SEATTLE, WA. More information available from US FCC via Universal Licensing System and Coast Guard Vessel Documentation Center.

Last reported at 2018-Jan-04 20:28 UTC. Time now 2018-Jan-21 18:14 UTC.
Position N 33°46' W 118°15'.
Warning: this ship's position is 16 days out of date.

; draft 6.5 m.

MMSI: 365903144.

Date/timePositionNaut miles runAvg speedWind from/ knotsBaromVisibWave heightAir tempDewpointWater temp
2018-Jan-04 20:28N 33°46' W 118°15'2 3.7
2018-Jan-04 20:00N 33°46' W 118°13'0 0.9
2018-Jan-04 19:27N 33°45' W 118°13'3 0.1
2018-Jan-03 18:29N 33°44' W 118°16'0 0.0
2018-Jan-03 17:54N 33°44' W 118°16'0 0.3
2018-Jan-03 17:30N 33°44' W 118°16'5 7.5
2018-Jan-03 16:51N 33°44' W 118°10'3 0.1
2018-Jan-02 20:19N 33°45' W 118°13'3 5.6
2018-Jan-02 19:50N 33°43' W 118°16'1 0.4
2018-Jan-02 16:55N 33°44' W 118°16'  
2017-Dec-26 23:30N 33°45' W 118°13'0 0.0
2017-Dec-26 19:17N 33°45' W 118°13'0 0.0
2017-Dec-26 19:00N 33°45' W 118°13'1 0.2
2017-Dec-26 13:50N 33°46' W 118°14'  

Dump ship's entire track history